Tiempo atmosférico en la estación meteorológica de Palencia, Palencia (736 m.)



Fecha
DESCASC
Temp. máxima en grados centígrados (hora)
DESCASC
Temp. mínima en grados centígrados (hora)
DESCASC
Temp. media en grados centígrados
DESCASC
Racha de viento máxima en m/sg (hora)
DESCASC
Velocidad máxima media en intervalos de 10 minutos(hora)
DESCASC
Precipitaciones diarias en mm
DESCASC
Precipitaciones de 00:00 a 06:00 en mm
DESCASC
Precipitaciones de 06:00 a 12:00 en mm
DESCASC
Precipitaciones de 12:00 a 18:00 en mm
DESCASC
Precipitaciones de 18:00 a 24:00 en mm
DESCASC
10-07-2020 29.1 (17:30) 15.1 (01:50) 22.1 8.61 (19:40) 4.44 (22:20) 0 0 0 0 0
09-07-2020 33.6 (17:40) 14 (06:30) 23.8 15.56 (18:40) 6.39 (18:40) 5 0.2 0 0 4.8
08-07-2020 29.3 (16:00) 13.9 (05:50) 21.6 10.83 (22:10) 6.11 (23:50) 3.6 0 0.8 1.4 1.4
07-07-2020 34.6 (18:10) 11.4 (06:40) 23 6.67 (00:40) 3.33 (00:40) 0 0 0 0 0
06-07-2020 28.9 (16:30) 15.8 (00:00) 22.3 9.17 (23:10) 4.44 (17:10) 0 0 0 0 0
05-07-2020 34.3 (18:00) 12 (07:00) 23.1 6.67 (21:30) 3.33 (21:30) 0 0 0 0 0
04-07-2020 31.3 (18:20) 8.7 (07:00) 20 7.5 (18:00) 3.89 (18:40) 0 0 0 0 0
03-07-2020 26.2 (17:10) 10.2 (06:30) 18.2 9.17 (14:50) 3.89 (10:20) 0 0 0 0 0
02-07-2020 28.9 (17:30) 12.2 (00:00) 20.5 9.44 (20:20) 4.72 (19:30) 0 0 0 0 0
01-07-2020 32.9 (17:10) 14.8 (00:00) 23.9 11.39 (18:20) 6.39 (21:10) 0 0 0 0 0
30-06-2020 34.4 (18:20) 12.8 (00:00) 23.6 8.89 (19:10) 4.17 (19:00) 0 0 0 0 0
29-06-2020 31.1 (18:40) 13.8 (00:00) 22.5 6.94 (20:50) 3.61 (20:50) 0 0 0 0 0
28-06-2020 31.5 (19:10) 13.5 (00:00) 22.5 8.61 (18:20) 4.44 (16:10) 0 0 0 0 0
27-06-2020 29 (17:00) 13.8 (00:00) 21.4 8.61 (15:20) 4.72 (01:10) 0 0 0 0 0
26-06-2020 28.2 (17:10) 13.6 (00:00) 20.9 10 (18:00) 5.83 (23:10) 0 0 0 0 0
25-06-2020 30.3 (16:50) 14.7 (00:00) 22.5 8.06 (19:20) 4.17 (19:20) 8 0.6 0 0.4 7
24-06-2020 30.5 (13:40) 16.1 (00:00) 23.3 15 (22:30) 7.5 (22:30) 0.2 0 0 0 0.2
23-06-2020 36 (19:10) 12.3 (00:00) 24.2 8.61 (20:30) 5.28 (15:40) 0 0 0 0 0
22-06-2020 31.9 (18:20) 13.4 (00:00) 22.6 7.5 (14:50) 3.06 (11:40) 0 0 0 0 0
21-06-2020 30.8 (18:00) 9.4 (00:00) 20.1 8.06 (00:10) 5.28 (00:10) 0 0 0 0 0
20-06-2020 30.3 (18:20) 8.8 (00:00) 19.5 8.33 (19:10) 5 (23:59) 0 0 0 0 0
19-06-2020 28 (18:50) 7.4 (00:00) 17.7 9.72 (17:10) 3.89 (18:20) 0 0 0 0 0
18-06-2020 25 (17:50) 9.3 (06:50) 17.2 7.5 (19:20) 3.33 (19:20) 0 0 0 0 0
17-06-2020 22.6 (19:00) 8.8 (00:00) 15.7 6.39 (19:10) 2.78 (19:10) 0 0 0 0 0
16-06-2020 22.7 (14:50) 10.4 (00:00) 16.6 13.89 (18:20) 7.78 (18:00) 0.4 0 0 0 0.4
15-06-2020 22.6 (15:20) 7.7 (00:00) 15.2 11.11 (18:10) 5 (22:20) 0 0 0 0 0
14-06-2020 21.4 (15:50) 6.1 (00:00) 13.7 9.72 (15:50) 5.28 (15:50) 0 0 0 0 0
13-06-2020 20.1 (17:10) 8.3 (00:00) 14.2 11.39 (10:10) 6.11 (10:00) 0.2 0.2 0 0 0
12-06-2020 17.6 (15:50) 8.5 (00:00) 13.1 14.72 (16:10) 8.06 (08:30) 1.8 0 0 1.8 0

Gráficas

Temp. máximas Temp. mínimas Temp. medias Precipitaciones Rachas de viento máximas Velocidades máximas media en intervalos de 10 minutos

Datos horarios

Fecha y hora oficial Temperatura (ºC) Velocidad del viento (km/h) Dirección del viento Racha (km/h) Dirección de racha Precipitación (mm) Presión (hPa) Tendencia (hPa) Humedad (%)
2020-07-11 23:00:00 21.7 4 Norte 22 Nordeste 0 -- -- 63
2020-07-11 22:00:00 24.4 4 Nordeste 23 Norte 0 -- -- 54
2020-07-11 21:00:00 26.4 9 Nordeste 27 Este 0 -- -- 47
2020-07-11 20:00:00 28 14 Nordeste 26 Nordeste 0 -- -- 43
2020-07-11 19:00:00 30 12 Nordeste 23 Nordeste 0 -- -- 40
2020-07-11 18:00:00 30.4 10 Nordeste 23 Nordeste 0 -- -- 39
2020-07-11 17:00:00 30.3 9 Nordeste 27 Nordeste 0 -- -- 39
2020-07-11 16:00:00 29.4 11 Nordeste 25 Nordeste 0 -- -- 41
2020-07-11 15:00:00 28.4 9 Nordeste 31 Nordeste 0 -- -- 45
2020-07-11 14:00:00 27 9 Nordeste 24 Nordeste 0 -- -- 50
2020-07-11 13:00:00 24.8 10 Nordeste 28 Este 0 -- -- 50
2020-07-11 12:00:00 22.8 10 Este 23 Nordeste 0 -- -- 58
2020-07-11 11:00:00 20.2 10 Nordeste 22 Nordeste 0 -- -- 60
2020-07-11 10:00:00 17.4 13 Este 26 Nordeste 0 -- -- 68
2020-07-11 09:00:00 14.9 13 Nordeste 22 Norte 0 -- -- 76
2020-07-11 08:00:00 13.7 7 Nordeste 18 Este 0 -- -- 80
2020-07-11 07:00:00 12.8 8 Nordeste 20 Nordeste 0 -- -- 84
2020-07-11 06:00:00 13.2 8 Nordeste 23 Nordeste 0 -- -- 84
2020-07-11 05:00:00 13.8 9 Nordeste 26 Norte 0 -- -- 81
2020-07-11 04:00:00 14.4 5 Nordeste 18 Nordeste 0 -- -- 81
2020-07-11 03:00:00 14.9 8 Nordeste 24 Este 0 -- -- 82
2020-07-11 02:00:00 15.3 9 Nordeste 23 Nordeste 0 -- -- 81
2020-07-11 01:00:00 15.8 10 Nordeste 20 Norte 0 -- -- 78
2020-07-11 00:00:00 16.4 9 Nordeste 30 Este 0 -- -- 78
2020-07-10 23:00:00 17.4 6 Nordeste 30 Este 0 -- -- 77
2020-07-10 22:00:00 19.3 8 Este 24 Nordeste 0 -- -- 71
2020-07-10 21:00:00 22.4 9 Nordeste 22 Nordeste 0 -- -- 63
2020-07-10 20:00:00 24.9 10 Nordeste 31 Este 0 -- -- 57
2020-07-10 19:00:00 27.2 12 Nordeste 28 Este 0 -- -- 51
2020-07-10 18:00:00 28.4 15 Nordeste 30 Este 0 -- -- 46
2020-07-10 17:00:00 29 8 Nordeste 24 Este 0 -- -- 46
2020-07-10 16:00:00 28.2 11 Nordeste 23 Nordeste 0 -- -- 46
2020-07-10 15:00:00 26.9 10 Nordeste 23 Nordeste 0 -- -- 52
2020-07-10 14:00:00 25.6 10 Nordeste 25 Nordeste 0 -- -- 59
2020-07-10 13:00:00 25 8 Nordeste 24 Nordeste 0 -- -- 60
2020-07-10 12:00:00 23.1 10 Este 22 Este 0 -- -- 67
2020-07-10 11:00:00 21.4 9 Nordeste 19 Este 0 -- -- 74
2020-07-10 10:00:00 19 6 Nordeste 21 Este 0 -- -- 83
2020-07-10 09:00:00 17.5 5 Nordeste 14 Este 0 -- -- 87
2020-07-10 08:00:00 16 3 Nordeste 9 Norte 0 -- -- 91
2020-07-10 07:00:00 15.3 3 Norte 11 Noroeste 0 -- -- 92
2020-07-10 06:00:00 15.4 3 Este 12 Sudeste 0 -- -- 91
2020-07-10 05:00:00 15.6 4 Este 15 Este 0 -- -- 91
2020-07-10 04:00:00 15.6 5 Este 14 Nordeste 0 -- -- 92
2020-07-10 03:00:00 15.8 3 Nordeste 12 Nordeste 0 -- -- 90
2020-07-10 02:00:00 15.1 2 Norte 6 Oeste 0 -- -- 89
2020-07-10 01:00:00 15.9 4 Oeste 13 Noroeste 0 -- -- 88
2020-07-10 00:00:00 16.6 4 Nordeste 9 Norte 0 -- -- 85
2020-07-09 23:00:00 17.3 4 Sudoeste 13 Oeste 0 -- -- 85
2020-07-09 22:00:00 19 7 Oeste 20 Sudeste 0 -- -- 80
2020-07-09 21:00:00 18.5 12 Sudeste 26 Sudeste 1.2 -- -- 82
2020-07-09 20:00:00 19.8 15 Sudeste 38 Sur 0.8 -- -- 72
2020-07-09 19:00:00 22.1 23 Sudeste 56 Sudeste 2.8 -- -- 67
2020-07-09 18:00:00 33.6 13 Norte 27 Norte 0 -- -- 35
2020-07-09 17:00:00 33.2 9 Norte 28 Norte 0 -- -- 37
2020-07-09 16:00:00 33.2 5 Sur 19 Sudeste 0 -- -- 31
2020-07-09 15:00:00 31.7 5 Sur 16 Sudeste 0 -- -- 38
2020-07-09 14:00:00 30.4 6 Sudoeste 12 Sudeste 0 -- -- 42
2020-07-09 13:00:00 29 6 Este 18 Sudeste 0 -- -- 47
2020-07-09 12:00:00 27.5 9 Sudeste 18 Sudeste 0 -- -- 51
2020-07-09 11:00:00 25.1 6 Este 14 Sudeste 0 -- -- 59
2020-07-09 10:00:00 21.2 5 Este 11 Este 0 -- -- 65
2020-07-09 09:00:00 17.7 3 Nordeste 8 Nordeste 0 -- -- 78
2020-07-09 08:00:00 15 0 Calma 5 Oeste 0 -- -- 89
2020-07-09 07:00:00 14.1 0 Calma 6 Sur 0 -- -- 88
2020-07-09 06:00:00 14.1 3 Sudeste 6 Este 0 -- -- 88
2020-07-09 05:00:00 14.8 2 Oeste 7 Oeste 0 -- -- 84
2020-07-09 04:00:00 16.9 2 Sudoeste 18 Noroeste 0 -- -- 76
2020-07-09 03:00:00 17.9 6 Noroeste 12 Noroeste 0 -- -- 74
2020-07-09 02:00:00 18.5 4 Sur 9 Oeste 0 -- -- 71
2020-07-09 01:00:00 18.8 4 Este 36 Sudeste 0.2 -- -- 67
2020-07-09 00:00:00 19.4 18 Este 38 Nordeste 0.6 -- -- 67
2020-07-08 23:00:00 21.8 9 Sudeste 39 Sudeste 0 -- -- 61
2020-07-08 22:00:00 23.2 16 Este 35 Nordeste 0 -- -- 49
2020-07-08 21:00:00 22.7 3 Sudoeste 32 Nordeste 0 -- -- 59
2020-07-08 20:00:00 21.6 9 Sudeste 22 Nordeste 0.8 -- -- 62
2020-07-08 19:00:00 23.9 14 Nordeste 28 Este 0 -- -- 50
2020-07-08 18:00:00 22.5 14 Nordeste 28 Nordeste 1 -- -- 55
2020-07-08 17:00:00 25.1 8 Noroeste 26 Sudoeste 0.2 -- -- 54
2020-07-08 16:00:00 29.3 5 Nordeste 18 Noroeste 0 -- -- 39
2020-07-08 15:00:00 28 2 Oeste 5 Sur 0.2 -- -- 44
2020-07-08 14:00:00 26.5 3 Sudeste 9 Sur 0 -- -- 49
2020-07-08 13:00:00 25.8 4 Sudeste 9 Sudeste 0 -- -- 51
2020-07-08 12:00:00 23.6 2 Sudeste 9 Sudeste 0 -- -- 57
2020-07-08 11:00:00 22.1 4 Sudeste 11 Este 0 -- -- 64
2020-07-08 10:00:00 19.2 0 Calma 10 Sudeste 0.8 -- -- 75
2020-07-08 09:00:00 17.3 3 Oeste 6 Norte 0 -- -- 74
2020-07-08 08:00:00 14.8 5 Oeste 9 Noroeste 0 -- -- 75
2020-07-08 07:00:00 14.3 4 Noroeste 6 Norte 0 -- -- 77
2020-07-08 06:00:00 14 5 Noroeste 7 Noroeste 0 -- -- 76
2020-07-08 05:00:00 14.4 0 Calma 4 Noroeste 0 -- -- 74
2020-07-08 04:00:00 15.5 3 Noroeste 5 Noroeste 0 -- -- 70
2020-07-08 03:00:00 16.5 4 Noroeste 8 Noroeste 0 -- -- 68
2020-07-08 02:00:00 18 5 Noroeste 8 Noroeste 0 -- -- 63
2020-07-08 01:00:00 20.3 2 Norte 9 Nordeste 0 -- -- 54
2020-07-08 00:00:00 21.5 4 Este 14 Sudeste 0 -- -- 49
2020-07-07 23:00:00 23.6 3 Este 16 Este 0 -- -- 44
2020-07-07 22:00:00 25.9 5 Este 20 Este 0 -- -- 42
2020-07-07 21:00:00 29.5 9 Este 21 Este 0 -- -- 32
2020-07-07 20:00:00 33.5 3 Nordeste 15 Noroeste 0 -- -- 28
2020-07-07 19:00:00 34.2 5 Norte 17 Norte 0 -- -- 28
2020-07-07 18:00:00 34.4 6 Norte 20 Noroeste 0 -- -- 26
2020-07-07 17:00:00 34.3 6 Norte 18 Noroeste 0 -- -- 27
2020-07-07 16:00:00 33.4 10 Norte 19 Norte 0 -- -- 28
2020-07-07 15:00:00 31.7 6 Este 12 Sudeste 0 -- -- 34
2020-07-07 14:00:00 29.7 5 Sur 14 Sudeste 0 -- -- 38
2020-07-07 13:00:00 27.2 4 Este 14 Nordeste 0 -- -- 38
2020-07-07 12:00:00 24.4 4 Nordeste 17 Este 0 -- -- 44
2020-07-07 11:00:00 20.9 5 Este 12 Este 0 -- -- 52
2020-07-07 10:00:00 16.8 6 Nordeste 15 Nordeste 0 -- -- 61
2020-07-07 09:00:00 14.1 7 Este 17 Nordeste 0 -- -- 69
2020-07-07 08:00:00 12.9 4 Nordeste 12 Nordeste 0 -- -- 75
2020-07-07 07:00:00 11.4 3 Nordeste 9 Norte 0 -- -- 81
2020-07-07 06:00:00 11.8 3 Nordeste 9 Nordeste 0 -- -- 78
2020-07-07 05:00:00 12.5 4 Nordeste 17 Nordeste 0 -- -- 77
2020-07-07 04:00:00 13.1 6 Nordeste 17 Nordeste 0 -- -- 75
2020-07-07 03:00:00 13.6 3 Nordeste 19 Este 0 -- -- 74
2020-07-07 02:00:00 14.2 5 Nordeste 23 Nordeste 0 -- -- 75
2020-07-07 01:00:00 14.9 9 Nordeste 24 Este 0 -- -- 75
2020-07-07 00:00:00 16.2 8 Este 33 Nordeste 0 -- -- 73
2020-07-06 23:00:00 17.9 12 Nordeste 30 Este 0 -- -- 66
2020-07-06 22:00:00 19.8 14 Nordeste 28 Nordeste 0 -- -- 61
2020-07-06 21:00:00 22.9 12 Nordeste 31 Este 0 -- -- 49
2020-07-06 20:00:00 25.7 12 Nordeste 27 Nordeste 0 -- -- 46
2020-07-06 19:00:00 27.9 10 Nordeste 30 Nordeste 0 -- -- 40
2020-07-06 18:00:00 28.3 14 Nordeste 29 Este 0 -- -- 43
2020-07-06 17:00:00 28.9 10 Nordeste 26 Este 0 -- -- 41
2020-07-06 16:00:00 28.5 10 Nordeste 24 Nordeste 0 -- -- 44
2020-07-06 15:00:00 27.3 12 Este 27 Nordeste 0 -- -- 44
2020-07-06 14:00:00 26.2 10 Este 30 Nordeste 0 -- -- 49
2020-07-06 13:00:00 24.2 12 Nordeste 28 Nordeste 0 -- -- 57
2020-07-06 12:00:00 24.1 13 Nordeste 23 Este 0 -- -- 57
2020-07-06 11:00:00 23 8 Nordeste 27 Nordeste 0 -- -- 63
2020-07-06 10:00:00 19.8 13 Nordeste 23 Nordeste 0 -- -- 69
2020-07-06 09:00:00 17.6 10 Nordeste 26 Nordeste 0 -- -- 75
2020-07-06 08:00:00 17.3 9 Nordeste 19 Nordeste 0 -- -- 76
2020-07-06 07:00:00 15.8 3 Norte 9 Nordeste 0 -- -- 83
2020-07-06 06:00:00 16.2 2 Noroeste 8 Norte 0 -- -- 79
2020-07-06 05:00:00 17 3 Nordeste 10 Nordeste 0 -- -- 77
2020-07-06 04:00:00 17.8 5 Nordeste 21 Nordeste 0 -- -- 76
2020-07-06 03:00:00 18.9 6 Nordeste 15 Nordeste 0 -- -- 71
2020-07-06 02:00:00 19.8 3 Nordeste 18 Este 0 -- -- 70
2020-07-06 01:00:00 21.2 4 Nordeste 15 Nordeste 0 -- -- 67
2020-07-06 00:00:00 22.8 4 Norte 13 Este 0 -- -- 64
2020-07-05 23:00:00 24.6 5 Nordeste 18 Nordeste 0 -- -- 60
2020-07-05 22:00:00 27.2 9 Nordeste 24 Norte 0 -- -- 52
2020-07-05 21:00:00 30.2 5 Nordeste 17 Norte 0 -- -- 38
2020-07-05 20:00:00 32.9 8 Norte 17 Noroeste 0 -- -- 31
2020-07-05 19:00:00 34 7 Noroeste 22 Noroeste 0 -- -- 27
2020-07-05 18:00:00 34.3 7 Oeste 22 Noroeste 0 -- -- 28
2020-07-05 17:00:00 33.4 8 Norte 20 Oeste 0 -- -- 29
2020-07-05 16:00:00 32.6 5 Noroeste 22 Norte 0 -- -- 31
2020-07-05 15:00:00 31.9 9 Norte 21 Noroeste 0 -- -- 34
2020-07-05 14:00:00 31 8 Norte 21 Noroeste 0 -- -- 36
2020-07-05 13:00:00 29.3 6 Este 17 Este 0 -- -- 40
2020-07-05 12:00:00 27.8 6 Nordeste 17 Nordeste 0 -- -- 40
2020-07-05 11:00:00 25.7 6 Este 18 Nordeste 0 -- -- 47
2020-07-05 10:00:00 21.3 7 Este 14 Este 0 -- -- 56
2020-07-05 09:00:00 16.5 2 Sudoeste 6 Noroeste 0 -- -- 69
2020-07-05 08:00:00 14.7 3 Noroeste 5 Noroeste 0 -- -- 78
2020-07-05 07:00:00 12 3 Oeste 5 Noroeste 0 -- -- 79
2020-07-05 06:00:00 12.9 4 Noroeste 6 Norte 0 -- -- 79
2020-07-05 05:00:00 13.4 4 Oeste 8 Oeste 0 -- -- 75
2020-07-05 04:00:00 14.4 0 Calma 4 Sudeste 0 -- -- 72
2020-07-05 03:00:00 16.2 0 Calma 8 Este 0 -- -- 66
2020-07-05 02:00:00 17.8 4 Nordeste 10 Este 0 -- -- 61
2020-07-05 01:00:00 19 5 Este 13 Este 0 -- -- 59
2020-07-05 00:00:00 19.8 3 Norte 12 Este 0 -- -- 54
2020-07-04 23:00:00 22.4 5 Nordeste 21 Nordeste 0 -- -- 48
2020-07-04 22:00:00 24.4 9 Nordeste 25 Este 0 -- -- 43
2020-07-04 21:00:00 27.3 10 Nordeste 18 Nordeste 0 -- -- 33
2020-07-04 20:00:00 30.1 6 Nordeste 22 Norte 0 -- -- 26
2020-07-04 19:00:00 31.1 9 Noroeste 24 Norte 0 -- -- 25
2020-07-04 18:00:00 31.2 7 Norte 27 Norte 0 -- -- 26
2020-07-04 17:00:00 30.9 5 Oeste 22 Norte 0 -- -- 23
2020-07-04 16:00:00 29.9 8 Noroeste 19 Norte 0 -- -- 24
2020-07-04 15:00:00 28.3 3 Sudeste 20 Norte 0 -- -- 29
2020-07-04 14:00:00 27.5 9 Noroeste 20 Noroeste 0 -- -- 28
2020-07-04 13:00:00 25.9 5 Noroeste 14 Noroeste 0 -- -- 37
2020-07-04 12:00:00 23.7 4 Oeste 11 Norte 0 -- -- 39
2020-07-04 11:00:00 20.6 4 Norte 11 Norte 0 -- -- 50
2020-07-04 10:00:00 15.5 5 Norte 9 Noroeste 0 -- -- 70
2020-07-04 09:00:00 12.1 5 Noroeste 10 Noroeste 0 -- -- 81
2020-07-04 08:00:00 11.1 6 Noroeste 10 Norte 0 -- -- 86
2020-07-04 07:00:00 8.7 3 Noroeste 6 Noroeste 0 -- -- 87
2020-07-04 06:00:00 9.5 5 Noroeste 7 Noroeste 0 -- -- 87
2020-07-04 05:00:00 10 3 Noroeste 4 Noroeste 0 -- -- 84
2020-07-04 04:00:00 10.9 0 Calma 6 Este 0 -- -- 80
2020-07-04 03:00:00 12.7 2 Norte 10 Este 0 -- -- 75
2020-07-04 02:00:00 14.1 3 Nordeste 9 Nordeste 0 -- -- 70
2020-07-04 01:00:00 15.5 4 Este 16 Nordeste 0 -- -- 66
2020-07-04 00:00:00 16.2 0 Calma 13 Este 0 -- -- 58
2020-07-03 23:00:00 15.9 0 Calma 5 Nordeste 0 -- -- 53
2020-07-03 22:00:00 19.7 4 Nordeste 10 Este 0 -- -- 43
2020-07-03 21:00:00 23.1 4 Nordeste 13 Norte 0 -- -- 34
2020-07-03 20:00:00 25.5 8 Norte 18 Noroeste 0 -- -- 29
2020-07-03 19:00:00 26 10 Norte 22 Norte 0 -- -- 29
2020-07-03 18:00:00 26 9 Noroeste 26 Norte 0 -- -- 31
2020-07-03 17:00:00 26.1 11 Norte 24 Noroeste 0 -- -- 34
2020-07-03 16:00:00 24.9 8 Norte 25 Nordeste 0 -- -- 38
2020-07-03 15:00:00 23.9 8 Norte 33 Noroeste 0 -- -- 39
2020-07-03 14:00:00 23 8 Nordeste 19 Nordeste 0 -- -- 43
2020-07-03 13:00:00 21.6 8 Este 21 Este 0 -- -- 48
2020-07-03 12:00:00 20.3 6 Nordeste 21 Este 0 -- -- 49
2020-07-03 11:00:00 18 10 Nordeste 24 Nordeste 0 -- -- 56
2020-07-03 10:00:00 15.6 11 Este 26 Este 0 -- -- 63
2020-07-03 09:00:00 13.3 11 Este 22 Este 0 -- -- 74
2020-07-03 08:00:00 12.4 6 Este 15 Norte 0 -- -- 78
2020-07-03 07:00:00 10.2 3 Nordeste 11 Nordeste 0 -- -- 84
2020-07-03 06:00:00 10.5 4 Norte 14 Nordeste 0 -- -- 83
2020-07-03 05:00:00 11.2 5 Nordeste 13 Nordeste 0 -- -- 82
2020-07-03 04:00:00 11.3 4 Nordeste 12 Norte 0 -- -- 83
2020-07-03 03:00:00 11.8 5 Nordeste 14 Nordeste 0 -- -- 82
2020-07-03 02:00:00 12.2 5 Nordeste 21 Nordeste 0 -- -- 80
2020-07-03 01:00:00 12.5 8 Nordeste 24 Este 0 -- -- 79
2020-07-03 00:00:00 12.9 7 Nordeste 24 Este 0 -- -- 76
2020-07-02 23:00:00 13.7 11 Nordeste 27 Norte 0 -- -- 72
2020-07-02 22:00:00 15 9 Nordeste 32 Este 0 -- -- 71
2020-07-02 21:00:00 17.7 11 Nordeste 34 Este 0 -- -- 64
2020-07-02 20:00:00 20.8 17 Nordeste 32 Nordeste 0 -- -- 57
2020-07-02 19:00:00 25.4 9 Nordeste 32 Oeste 0 -- -- 46
2020-07-02 18:00:00 28.7 13 Noroeste 29 Oeste 0 -- -- 28
2020-07-02 17:00:00 28.6 10 Oeste 31 Oeste 0 -- -- 32
2020-07-02 16:00:00 27.3 10 Noroeste 31 Oeste 0 -- -- 38
2020-07-02 15:00:00 27 13 Oeste 32 Oeste 0 -- -- 39
2020-07-02 14:00:00 26.1 12 Oeste 24 Noroeste 0 -- -- 42
2020-07-02 13:00:00 24.9 10 Oeste 24 Oeste 0 -- -- 48
2020-07-02 12:00:00 22.9 9 Noroeste 17 Noroeste 0 -- -- 54
2020-07-02 11:00:00 21.3 3 Norte 12 Noroeste 0 -- -- 60
2020-07-02 10:00:00 18.3 4 Sudeste 9 Sudeste 0 -- -- 79
2020-07-02 09:00:00 16.6 3 Sudeste 5 Sur 0 -- -- 86
2020-07-02 08:00:00 14.8 0 Calma 4 Sudeste 0 -- -- 94
2020-07-02 07:00:00 13.3 0 Calma 4 Sudeste 0 -- -- 94
2020-07-02 06:00:00 12.2 0 Calma 5 Noroeste 0 -- -- 91
2020-07-02 05:00:00 12.9 0 Calma 5 Oeste 0 -- -- 89
2020-07-02 04:00:00 13.6 0 Calma 5 Oeste 0 -- -- 88
2020-07-02 03:00:00 14.4 3 Oeste 6 Norte 0 -- -- 85
2020-07-02 02:00:00 15.5 0 Calma 9 Norte 0 -- -- 84
2020-07-02 01:00:00 16.6 6 Norte 12 Noroeste 0 -- -- 82
2020-07-02 00:00:00 18 5 Noroeste 11 Norte 0 -- -- 78
2020-07-01 23:00:00 19.6 6 Noroeste 21 Norte 0 -- -- 73
2020-07-01 22:00:00 22.1 7 Norte 38 Oeste 0 -- -- 64
2020-07-01 21:00:00 27.9 21 Oeste 40 Oeste 0 -- -- 33
2020-07-01 20:00:00 30.4 22 Oeste 40 Oeste 0 -- -- 24
2020-07-01 19:00:00 31.8 21 Oeste 41 Oeste 0 -- -- 25
2020-07-01 18:00:00 32.5 21 Oeste 39 Oeste 0 -- -- 23
2020-07-01 17:00:00 32.8 21 Oeste 38 Noroeste 0 -- -- 25
2020-07-01 16:00:00 32.3 18 Oeste 40 Oeste 0 -- -- 31
2020-07-01 15:00:00 31.2 14 Oeste 33 Oeste 0 -- -- 34
2020-07-01 14:00:00 30.7 13 Oeste 31 Oeste 0 -- -- 40
2020-07-01 13:00:00 29.6 12 Oeste 32 Oeste 0 -- -- 45
2020-07-01 12:00:00 27.6 7 Oeste 19 Noroeste 0 -- -- 52
2020-07-01 11:00:00 25.1 4 Nordeste 10 Noroeste 0 -- -- 61
2020-07-01 10:00:00 20.8 3 Nordeste 8 Norte 0 -- -- 74
2020-07-01 09:00:00 18.5 4 Norte 10 Norte 0 -- -- 82
2020-07-01 08:00:00 16.9 0 Calma 5 Noroeste 0 -- -- 85
2020-07-01 07:00:00 14.8 0 Calma 5 Sudeste 0 -- -- 85
2020-07-01 06:00:00 15.6 0 Calma 9 Oeste 0 -- -- 83
2020-07-01 05:00:00 16.6 3 Noroeste 6 Oeste 0 -- -- 82
2020-07-01 04:00:00 17.7 0 Calma 4 Oeste 0 -- -- 73
2020-07-01 03:00:00 19.6 3 Noroeste 6 Noroeste 0 -- -- 70
2020-07-01 02:00:00 20.5 3 Norte 6 Este 0 -- -- 64
2020-07-01 01:00:00 21.3 2 Nordeste 9 Norte 0 -- -- 58
2020-07-01 00:00:00 23.2 3 Norte 11 Noroeste 0 -- -- 51
2020-06-30 23:00:00 26 6 Norte 22 Noroeste 0 -- -- 45
2020-06-30 22:00:00 29 10 Noroeste 26 Oeste 0 -- -- 29
2020-06-30 21:00:00 30.7 7 Noroeste 26 Oeste 0 -- -- 30
2020-06-30 20:00:00 33 13 Oeste 32 Oeste 0 -- -- 28
2020-06-30 19:00:00 34 15 Noroeste 27 Oeste 0 -- -- 27
2020-06-30 18:00:00 34 10 Oeste 26 Noroeste 0 -- -- 29
2020-06-30 17:00:00 32.2 8 Nordeste 19 Norte 0 -- -- 33
2020-06-30 16:00:00 31.1 5 Nordeste 15 Norte 0 -- -- 38
2020-06-30 15:00:00 32.4 5 Norte 15 Norte 0 -- -- 36
2020-06-30 14:00:00 31.6 5 Sudeste 15 Sudeste 0 -- -- 42
2020-06-30 13:00:00 30.2 4 Sudeste 13 Nordeste 0 -- -- 43
2020-06-30 12:00:00 28.4 5 Sudeste 16 Sudeste 0 -- -- 44
2020-06-30 11:00:00 25.4 5 Este 13 Nordeste 0 -- -- 50
2020-06-30 10:00:00 21.1 6 Nordeste 13 Este 0 -- -- 49
2020-06-30 09:00:00 16.7 5 Noroeste 9 Noroeste 0 -- -- 67
2020-06-30 08:00:00 15.6 3 Norte 6 Norte 0 -- -- 74
2020-06-30 07:00:00 12.9 0 Calma 4 Sudoeste 0 -- -- 76
2020-06-30 06:00:00 13.6 0 Calma 4 Este 0 -- -- 72
2020-06-30 05:00:00 14.9 2 Nordeste 5 Nordeste 0 -- -- 63
2020-06-30 04:00:00 16.2 2 Norte 11 Nordeste 0 -- -- 61
2020-06-30 03:00:00 17 4 Nordeste 17 Nordeste 0 -- -- 61
2020-06-30 02:00:00 17.6 5 Este 15 Este 0 -- -- 65
2020-06-30 01:00:00 18.9 7 Este 17 Este 0 -- -- 70
2020-06-30 00:00:00 20.3 8 Este 17 Nordeste 0 -- -- 70
2020-06-29 23:00:00 22.1 0 Calma 19 Nordeste 0 -- -- 62
2020-06-29 22:00:00 24.2 8 Este 22 Nordeste 0 -- -- 57
2020-06-29 21:00:00 26.3 10 Nordeste 25 Nordeste 0 -- -- 50
2020-06-29 20:00:00 29.2 7 Nordeste 23 Este 0 -- -- 45
2020-06-29 19:00:00 30.7 6 Nordeste 17 Norte 0 -- -- 42
2020-06-29 18:00:00 30.6 5 Este 24 Este 0 -- -- 45
2020-06-29 17:00:00 30.5 6 Nordeste 19 Sur 0 -- -- 43
2020-06-29 16:00:00 30 5 Sudeste 19 Noroeste 0 -- -- 44
2020-06-29 15:00:00 28.9 6 Norte 19 Noroeste 0 -- -- 45
2020-06-29 14:00:00 27.8 4 Nordeste 12 Noroeste 0 -- -- 51
2020-06-29 13:00:00 27 8 Sudeste 17 Sudeste 0 -- -- 55
2020-06-29 12:00:00 24.9 4 Este 13 Nordeste 0 -- -- 59
2020-06-29 11:00:00 22.7 4 Sur 11 Nordeste 0 -- -- 68
2020-06-29 10:00:00 19.4 5 Este 13 Nordeste 0 -- -- 77
2020-06-29 09:00:00 17.1 4 Nordeste 12 Nordeste 0 -- -- 85
2020-06-29 08:00:00 15.9 3 Noroeste 6 Noroeste 0 -- -- 88
2020-06-29 07:00:00 13.8 2 Noroeste 5 Noroeste 0 -- -- 90
2020-06-29 06:00:00 14.1 2 Norte 5 Norte 0 -- -- 89
2020-06-29 05:00:00 14.7 0 Calma 5 Este 0 -- -- 88
2020-06-29 04:00:00 15.2 4 Noroeste 6 Norte 0 -- -- 86
2020-06-29 03:00:00 16.2 2 Norte 6 Nordeste 0 -- -- 82
2020-06-29 02:00:00 17.1 2 Nordeste 9 Nordeste 0 -- -- 80
2020-06-29 01:00:00 18.1 4 Nordeste 14 Norte 0 -- -- 76
2020-06-29 00:00:00 19.6 5 Norte 16 Noroeste 0 -- -- 73
2020-06-28 23:00:00 21.6 8 Norte 25 Noroeste 0 -- -- 66
2020-06-28 22:00:00 24.1 5 Oeste 12 Noroeste 0 -- -- 51
2020-06-28 21:00:00 28.3 9 Noroeste 21 Oeste 0 -- -- 41
2020-06-28 20:00:00 30.9 10 Noroeste 25 Noroeste 0 -- -- 36
2020-06-28 19:00:00 31.4 10 Noroeste 31 Oeste 0 -- -- 36
2020-06-28 18:00:00 30.9 8 Noroeste 27 Oeste 0 -- -- 36
2020-06-28 17:00:00 30.6 12 Noroeste 27 Oeste 0 -- -- 36
2020-06-28 16:00:00 29.7 8 Noroeste 28 Oeste 0 -- -- 36
2020-06-28 15:00:00 28.8 10 Oeste 27 Oeste 0 -- -- 38
2020-06-28 14:00:00 27.4 10 Oeste 25 Oeste 0 -- -- 44
2020-06-28 13:00:00 26.1 11 Sudoeste 21 Oeste 0 -- -- 49
2020-06-28 12:00:00 24.6 9 Oeste 21 Noroeste 0 -- -- 52
2020-06-28 11:00:00 22.6 7 Sudoeste 18 Sudoeste 0 -- -- 61
2020-06-28 10:00:00 19.9 8 Oeste 16 Oeste 0 -- -- 65
2020-06-28 09:00:00 17.6 8 Oeste 18 Oeste 0 -- -- 74
2020-06-28 08:00:00 16.6 2 Este 9 Oeste 0 -- -- 82
2020-06-28 07:00:00 13.7 3 Sudoeste 9 Noroeste 0 -- -- 88
2020-06-28 06:00:00 14 4 Oeste 8 Oeste 0 -- -- 85
2020-06-28 05:00:00 14.8 4 Oeste 10 Oeste 0 -- -- 83
2020-06-28 04:00:00 15.5 2 Sudoeste 5 Sudoeste 0 -- -- 81
2020-06-28 03:00:00 16.2 2 Oeste 6 Oeste 0 -- -- 79
2020-06-28 02:00:00 17.1 3 Sudoeste 7 Oeste 0 -- -- 75
2020-06-28 01:00:00 18.9 0 Calma 21 Noroeste 0 -- -- 68
2020-06-28 00:00:00 20.4 13 Noroeste 22 Noroeste 0 -- -- 64
2020-06-27 23:00:00 21.7 11 Noroeste 21 Oeste 0 -- -- 60
2020-06-27 22:00:00 22.2 5 Oeste 20 Oeste 0 -- -- 58
2020-06-27 21:00:00 25 13 Oeste 22 Oeste 0 -- -- 51
2020-06-27 20:00:00 26.8 8 Noroeste 25 Oeste 0 -- -- 43
2020-06-27 19:00:00 27.9 10 Oeste 26 Oeste 0 -- -- 42
2020-06-27 18:00:00 27.3 12 Oeste 27 Oeste 0 -- -- 46
2020-06-27 17:00:00 29 16 Oeste 31 Oeste 0 -- -- 42
2020-06-27 16:00:00 26.5 15 Oeste 31 Oeste 0 -- -- 47
2020-06-27 15:00:00 26 14 Oeste 28 Oeste 0 -- -- 49
2020-06-27 14:00:00 23.9 10 Oeste 23 Oeste 0 -- -- 57
2020-06-27 13:00:00 22.6 9 Oeste 22 Oeste 0 -- -- 57
2020-06-27 12:00:00 21.6 8 Oeste 19 Noroeste 0 -- -- 62
2020-06-27 11:00:00 19.9 5 Oeste 14 Oeste 0 -- -- 67
2020-06-27 10:00:00 18.3 6 Oeste 15 Oeste 0 -- -- 73
2020-06-27 09:00:00 16.5 6 Sudoeste 17 Sudoeste 0 -- -- 81
2020-06-27 08:00:00 15.7 4 Sudeste 12 Sudeste 0 -- -- 83
2020-06-27 07:00:00 13.8 2 Sudeste 13 Sudoeste 0 -- -- 86
2020-06-27 06:00:00 14.9 5 Sudoeste 24 Oeste 0 -- -- 83
2020-06-27 05:00:00 15.6 12 Oeste 26 Oeste 0 -- -- 80
2020-06-27 04:00:00 15.8 0 Calma 15 Oeste 0 -- -- 78
2020-06-27 03:00:00 16.7 8 Oeste 22 Oeste 0 -- -- 74
2020-06-27 02:00:00 17.8 15 Oeste 29 Oeste 0 -- -- 69
2020-06-27 01:00:00 18.4 16 Oeste 27 Oeste 0 -- -- 65
2020-06-27 00:00:00 19.2 15 Oeste 32 Oeste 0 -- -- 61
2020-06-26 23:00:00 20.1 17 Oeste 29 Oeste 0 -- -- 56
2020-06-26 22:00:00 21.5 7 Oeste 24 Oeste 0 -- -- 50
2020-06-26 21:00:00 23.7 13 Oeste 28 Oeste 0 -- -- 42
2020-06-26 20:00:00 26 14 Oeste 32 Oeste 0 -- -- 34
2020-06-26 19:00:00 26.8 14 Oeste 32 Sudoeste 0 -- -- 31
2020-06-26 18:00:00 27.4 21 Oeste 36 Oeste 0 -- -- 30
2020-06-26 17:00:00 27.9 12 Oeste 27 Oeste 0 -- -- 34
2020-06-26 16:00:00 27.6 11 Sudoeste 33 Sudoeste 0 -- -- 39
2020-06-26 15:00:00 26.6 12 Sudoeste 31 Sudoeste 0 -- -- 43
2020-06-26 14:00:00 24.8 11 Sudoeste 27 Sudoeste 0 -- -- 54
2020-06-26 13:00:00 24.4 8 Sudoeste 22 Sudoeste 0 -- -- 60
2020-06-26 12:00:00 23.4 7 Oeste 17 Sudoeste 0 -- -- 70
2020-06-26 11:00:00 20.6 4 Sur 14 Sudoeste 0 -- -- 86
2020-06-26 10:00:00 18.1 4 Sur 12 Sudeste 0 -- -- 90
2020-06-26 09:00:00 16.7 4 Sudeste 9 Sudeste 0 -- -- 95
2020-06-26 08:00:00 15 0 Calma 4 Oeste 0 -- -- 96
2020-06-26 07:00:00 13.6 0 Calma 5 Norte 0 -- -- 94
2020-06-26 06:00:00 14.1 0 Calma 7 Sudoeste 0 -- -- 92
2020-06-26 05:00:00 14.9 4 Sur 7 Sudeste 0 -- -- 94
2020-06-26 04:00:00 15.1 4 Sudoeste 5 Sudoeste 0 -- -- 92
2020-06-26 03:00:00 15.5 0 Calma 5 Sur 0 -- -- 92
2020-06-26 02:00:00 16.3 3 Sudoeste 6 Sur 0 -- -- 91
2020-06-26 01:00:00 16.9 2 Sudoeste 9 Oeste 0 -- -- 92
2020-06-26 00:00:00 17.2 3 Sudoeste 8 Sudoeste 0 -- -- 92
2020-06-25 23:00:00 18.2 0 Calma 6 Noroeste 0 -- -- 90
2020-06-25 22:00:00 19.8 4 Noroeste 9 Noroeste 0 -- -- 88
2020-06-25 21:00:00 20.2 0 Calma 9 Sudoeste 0.6 -- -- 89
2020-06-25 20:00:00 20.2 4 Sur 29 Sudeste 6.4 -- -- 83
2020-06-25 19:00:00 25.3 8 Este 24 Sudeste 0 -- -- 54
2020-06-25 18:00:00 26.4 10 Sudeste 27 Sudeste 0 -- -- 50
2020-06-25 17:00:00 29.7 4 Norte 19 Noroeste 0 -- -- 41
2020-06-25 16:00:00 30.1 10 Norte 22 Norte 0 -- -- 41
2020-06-25 15:00:00 28 5 Sudeste 13 Nordeste 0 -- -- 52
2020-06-25 14:00:00 24 2 Sudeste 17 Sudeste 0.2 -- -- 62
2020-06-25 13:00:00 24.7 8 Sudeste 18 Sudeste 0.2 -- -- 63
2020-06-25 12:00:00 24.6 9 Sudeste 18 Sudeste 0 -- -- 58
2020-06-25 11:00:00 23.8 9 Sudeste 19 Sudeste 0 -- -- 63
2020-06-25 10:00:00 21.6 5 Este 18 Oeste 0 -- -- 64
2020-06-25 09:00:00 19.3 4 Norte 11 Este 0 -- -- 74
2020-06-25 08:00:00 16.7 4 Noroeste 13 Noroeste 0 -- -- 84
2020-06-25 07:00:00 14.7 3 Sudoeste 8 Sudoeste 0 -- -- 87
2020-06-25 06:00:00 16 2 Sudeste 6 Sudeste 0 -- -- 83
2020-06-25 05:00:00 17.1 5 Sudeste 11 Nordeste 0 -- -- 79
2020-06-25 04:00:00 16.9 2 Sudoeste 7 Sudeste 0 -- -- 84
2020-06-25 03:00:00 17 2 Sudoeste 10 Nordeste 0 -- -- 82
2020-06-25 02:00:00 17.8 6 Sudeste 12 Sudeste 0.6 -- -- 82
2020-06-25 01:00:00 19.6 4 Noroeste 24 Noroeste 0 -- -- 69
2020-06-25 00:00:00 20.3 10 Este 27 Norte 0.2 -- -- 63
2020-06-24 23:00:00 21.1 16 Noroeste 54 Oeste 0 -- -- 63
2020-06-24 22:00:00 22.1 7 Oeste 21 Noroeste 0 -- -- 60
2020-06-24 21:00:00 25.6 10 Noroeste 15 Noroeste 0 -- -- 39
2020-06-24 20:00:00 27.1 6 Norte 18 Oeste 0 -- -- 46
2020-06-24 19:00:00 28.1 3 Norte 5 Norte 0 -- -- 41
2020-06-24 18:00:00 29.8 2 Sudeste 11 Oeste 0 -- -- 41
2020-06-24 17:00:00 28.4 4 Sudeste 9 Sudeste 0 -- -- 46
2020-06-24 16:00:00 28.2 5 Sudoeste 26 Sudoeste 0 -- -- 38
2020-06-24 15:00:00 27.4 11 Sudoeste 34 Oeste 0 -- -- 38
2020-06-24 14:00:00 30 10 Sudeste 22 Sudeste 0 -- -- 36
2020-06-24 13:00:00 27.7 3 Este 7 Sudeste 0 -- -- 47
2020-06-24 12:00:00 24.9 0 Calma 6 Noroeste 0 -- -- 52
2020-06-24 11:00:00 21.9 2 Nordeste 8 Sudeste 0 -- -- 60
2020-06-24 10:00:00 20.6 2 Sudeste 5 Sudeste 0 -- -- 66
2020-06-24 09:00:00 19.4 4 Sudeste 9 Sur 0 -- -- 65
2020-06-24 08:00:00 18.2 4 Sudeste 9 Sur 0 -- -- 69
2020-06-24 07:00:00 16.1 0 Calma 8 Sudeste 0 -- -- 69
2020-06-24 06:00:00 16.7 0 Calma 9 Sudoeste 0 -- -- 66
2020-06-24 05:00:00 16.9 3 Sudeste 6 Sudeste 0 -- -- 72
2020-06-24 04:00:00 17.7 2 Sudeste 8 Noroeste 0 -- -- 66
2020-06-24 03:00:00 18.2 2 Norte 7 Sudeste 0 -- -- 58
2020-06-24 02:00:00 20.6 3 Oeste 9 Sudeste 0 -- -- 51
2020-06-24 01:00:00 23.6 8 Sudeste 22 Sudeste 0 -- -- 45
2020-06-24 00:00:00 24.5 10 Noroeste 17 Noroeste 0 -- -- 41
2020-06-23 23:00:00 24.3 3 Oeste 15 Oeste 0 -- -- 43
2020-06-23 22:00:00 26.2 4 Oeste 14 Sudeste 0 -- -- 40
2020-06-23 21:00:00 30.2 7 Sur 31 Sudeste 0 -- -- 32
2020-06-23 20:00:00 35.1 8 Norte 19 Noroeste 0 -- -- 22
2020-06-23 19:00:00 35.6 9 Noroeste 21 Noroeste 0 -- -- 24
2020-06-23 18:00:00 35.4 9 Norte 26 Noroeste 0 -- -- 22
2020-06-23 17:00:00 34.6 4 Nordeste 26 Noroeste 0 -- -- 26
2020-06-23 16:00:00 35.6 10 Oeste 28 Oeste 0 -- -- 25
2020-06-23 15:00:00 34.2 14 Noroeste 29 Noroeste 0 -- -- 27
2020-06-23 14:00:00 33.1 6 Norte 13 Norte 0 -- -- 31
2020-06-23 13:00:00 31.8 5 Sudeste 10 Sudeste 0 -- -- 39
2020-06-23 12:00:00 28.8 3 Sudoeste 8 Sudeste 0 -- -- 37
2020-06-23 11:00:00 25.5 4 Sudeste 8 Sudeste 0 -- -- 49
2020-06-23 10:00:00 20.5 4 Sudeste 8 Sudeste 0 -- -- 61
2020-06-23 09:00:00 16.5 3 Sudeste 5 Sudeste 0 -- -- 74
2020-06-23 08:00:00 14.5 4 Noroeste 7 Norte 0 -- -- 79
2020-06-23 07:00:00 12.3 0 Calma 9 Oeste 0 -- -- 84
2020-06-23 06:00:00 13.1 2 Noroeste 5 Noroeste 0 -- -- 80
2020-06-23 05:00:00 13.9 2 Noroeste 6 Noroeste 0 -- -- 80
2020-06-23 04:00:00 15.3 0 Calma 9 Nordeste 0 -- -- 76
2020-06-23 03:00:00 15.9 2 Nordeste 5 Noroeste 0 -- -- 75
2020-06-23 02:00:00 16.7 0 Calma 4 Este 0 -- -- 70
2020-06-23 01:00:00 18 3 Norte 8 Oeste 0 -- -- 65
2020-06-23 00:00:00 20.2 3 Norte 12 Este 0 -- -- 59
2020-06-22 23:00:00 21.1 3 Norte 10 Nordeste 0 -- -- 52
2020-06-22 22:00:00 24.6 2 Nordeste 24 Este 0 -- -- 42
2020-06-22 21:00:00 27.4 10 Nordeste 23 Este 0 -- -- 33
2020-06-22 20:00:00 29.9 9 Nordeste 25 Este 0 -- -- 28
2020-06-22 19:00:00 31.3 10 Nordeste 19 Este 0 -- -- 28
2020-06-22 18:00:00 31.7 7 Este 19 Nordeste 0 -- -- 26
2020-06-22 17:00:00 31.3 7 Este 20 Nordeste 0 -- -- 28
2020-06-22 16:00:00 30.3 9 Este 21 Este 0 -- -- 30
2020-06-22 15:00:00 29.6 7 Este 27 Este 0 -- -- 31
2020-06-22 14:00:00 28.2 8 Este 22 Nordeste 0 -- -- 33
2020-06-22 13:00:00 26.5 8 Este 22 Este 0 -- -- 35
2020-06-22 12:00:00 24.4 8 Este 22 Este 0 -- -- 43
2020-06-22 11:00:00 22.1 7 Este 18 Nordeste 0 -- -- 62
2020-06-22 10:00:00 18.8 7 Este 15 Este 0 -- -- 73
2020-06-22 09:00:00 16.1 5 Este 11 Este 0 -- -- 83
2020-06-22 08:00:00 15 2 Nordeste 5 Norte 0 -- -- 84
2020-06-22 07:00:00 13.5 3 Noroeste 8 Nordeste 0 -- -- 86
2020-06-22 06:00:00 14.4 5 Nordeste 12 Nordeste 0 -- -- 85
2020-06-22 05:00:00 14.5 3 Este 23 Este 0 -- -- 84
2020-06-22 04:00:00 14.7 4 Este 17 Nordeste 0 -- -- 84
2020-06-22 03:00:00 15.3 8 Nordeste 19 Norte 0 -- -- 83
2020-06-22 02:00:00 15.9 7 Nordeste 18 Este 0 -- -- 80
2020-06-22 01:00:00 16.4 7 Nordeste 21 Este 0 -- -- 79
2020-06-22 00:00:00 17.1 6 Nordeste 17 Este 0 -- -- 76
2020-06-21 23:00:00 18.6 6 Norte 17 Nordeste 0 -- -- 69
2020-06-21 22:00:00 21.4 7 Norte 26 Nordeste 0 -- -- 62
2020-06-21 21:00:00 26.7 7 Nordeste 22 Norte 0 -- -- 46
2020-06-21 20:00:00 30.1 9 Noroeste 21 Noroeste 0 -- -- 29
2020-06-21 19:00:00 30.6 8 Norte 21 Norte 0 -- -- 28
2020-06-21 18:00:00 30.8 6 Noroeste 23 Oeste 0 -- -- 27
2020-06-21 17:00:00 30.3 9 Noroeste 20 Noroeste 0 -- -- 26
2020-06-21 16:00:00 29.3 9 Oeste 28 Oeste 0 -- -- 28
2020-06-21 15:00:00 28.4 11 Noroeste 26 Noroeste 0 -- -- 30
2020-06-21 14:00:00 27.6 10 Oeste 24 Oeste 0 -- -- 31
2020-06-21 13:00:00 26 12 Oeste 25 Oeste 0 -- -- 35
2020-06-21 12:00:00 24.3 11 Oeste 22 Oeste 0 -- -- 41
2020-06-21 11:00:00 21.7 7 Oeste 18 Oeste 0 -- -- 47
2020-06-21 10:00:00 17.3 4 Oeste 12 Noroeste 0 -- -- 69
2020-06-21 09:00:00 13.8 3 Este 5 Nordeste 0 -- -- 84
2020-06-21 08:00:00 11.9 3 Norte 5 Noroeste 0 -- -- 86
2020-06-21 07:00:00 9.4 2 Sur 4 Sudoeste 0 -- -- 87
2020-06-21 06:00:00 10.3 0 Calma 4 Oeste 0 -- -- 88
2020-06-21 05:00:00 11.2 0 Calma 9 Sudoeste 0 -- -- 84
2020-06-21 04:00:00 13 5 Sudoeste 8 Noroeste 0 -- -- 80
2020-06-21 03:00:00 14.5 6 Noroeste 10 Noroeste 0 -- -- 77
2020-06-21 02:00:00 15.2 4 Oeste 12 Oeste 0 -- -- 59
2020-06-21 01:00:00 19 2 Nordeste 29 Oeste 0 -- -- 48
2020-06-21 00:00:00 20.9 18 Oeste 29 Oeste 0 -- -- 42
2020-06-20 23:00:00 21.4 11 Oeste 18 Oeste 0 -- -- 41
2020-06-20 22:00:00 22.9 11 Oeste 23 Oeste 0 -- -- 40
2020-06-20 21:00:00 26.5 12 Oeste 26 Oeste 0 -- -- 31
2020-06-20 20:00:00 29.2 12 Oeste 30 Oeste 0 -- -- 28
2020-06-20 19:00:00 30.2 11 Noroeste 27 Oeste 0 -- -- 26
2020-06-20 18:00:00 30.1 13 Oeste 29 Oeste 0 -- -- 26
2020-06-20 17:00:00 29.7 6 Oeste 28 Oeste 0 -- -- 28
2020-06-20 16:00:00 29.1 7 Oeste 29 Oeste 0 -- -- 28
2020-06-20 15:00:00 27.8 14 Oeste 26 Noroeste 0 -- -- 30
2020-06-20 14:00:00 26.7 9 Oeste 23 Oeste 0 -- -- 34
2020-06-20 13:00:00 25.1 5 Noroeste 19 Sudoeste 0 -- -- 39
2020-06-20 12:00:00 22.9 4 Norte 10 Nordeste 0 -- -- 45
2020-06-20 11:00:00 19.8 3 Oeste 8 Norte 0 -- -- 52
2020-06-20 10:00:00 15.6 3 Sudoeste 8 Norte 0 -- -- 67
2020-06-20 09:00:00 12.4 2 Norte 6 Noroeste 0 -- -- 75
2020-06-20 08:00:00 11.4 3 Norte 7 Noroeste 0 -- -- 79
2020-06-20 07:00:00 8.9 4 Noroeste 10 Noroeste 0 -- -- 87
2020-06-20 06:00:00 9.1 5 Noroeste 8 Oeste 0 -- -- 86
2020-06-20 05:00:00 9.1 2 Oeste 5 Oeste 0 -- -- 82
2020-06-20 04:00:00 10.1 3 Noroeste 6 Noroeste 0 -- -- 78
2020-06-20 03:00:00 10.8 4 Oeste 6 Oeste 0 -- -- 74
2020-06-20 02:00:00 13 3 Oeste 13 Norte 0 -- -- 70
2020-06-20 01:00:00 15.5 8 Norte 13 Noroeste 0 -- -- 73
2020-06-20 00:00:00 16.8 5 Este 13 Este 0 -- -- 71
2020-06-19 23:00:00 16.7 3 Oeste 10 Oeste 0 -- -- 52
2020-06-19 22:00:00 19.9 5 Oeste 6 Sudoeste 0 -- -- 43
2020-06-19 21:00:00 24.6 5 Norte 15 Noroeste 0 -- -- 34
2020-06-19 20:00:00 26.9 11 Oeste 26 Oeste 0 -- -- 28
2020-06-19 19:00:00 27.9 13 Oeste 30 Oeste 0 -- -- 28
2020-06-19 18:00:00 27.8 14 Noroeste 35 Oeste 0 -- -- 26
2020-06-19 17:00:00 27.4 14 Oeste 27 Oeste 0 -- -- 27
2020-06-19 16:00:00 26.5 8 Sudoeste 27 Sudoeste 0 -- -- 27
2020-06-19 15:00:00 25.4 13 Oeste 29 Oeste 0 -- -- 31
2020-06-19 14:00:00 24.1 13 Oeste 31 Oeste 0 -- -- 38
2020-06-19 13:00:00 23.2 14 Oeste 27 Oeste 0 -- -- 47
2020-06-19 12:00:00 21.1 9 Oeste 18 Oeste 0 -- -- 52
2020-06-19 11:00:00 18.5 4 Nordeste 9 Este 0 -- -- 68
2020-06-19 10:00:00 14.3 3 Norte 7 Sudeste 0 -- -- 76
2020-06-19 09:00:00 11.7 2 Nordeste 6 Este 0 -- -- 84
2020-06-19 08:00:00 10.1 0 Calma 3 Norte 0 -- -- 90
2020-06-19 07:00:00 7.4 3 Oeste 5 Oeste 0 -- -- 90
2020-06-19 06:00:00 9 0 Calma 7 Este 0 -- -- 90
2020-06-19 05:00:00 10 4 Nordeste 11 Nordeste 0 -- -- 90
2020-06-19 04:00:00 9.9 2 Noroeste 9 Noroeste 0 -- -- 90
2020-06-19 03:00:00 10.5 3 Norte 7 Norte 0 -- -- 87
2020-06-19 02:00:00 11.7 3 Norte 8 Norte 0 -- -- 83
2020-06-19 01:00:00 12.5 3 Noroeste 10 Noroeste 0 -- -- 80
2020-06-19 00:00:00 14.4 3 Norte 8 Nordeste 0 -- -- 74
2020-06-18 23:00:00 15.2 4 Oeste 11 Norte 0 -- -- 71
2020-06-18 22:00:00 17.1 5 Oeste 7 Noroeste 0 -- -- 51
2020-06-18 21:00:00 21.6 5 Noroeste 20 Noroeste 0 -- -- 38
2020-06-18 20:00:00 24 8 Noroeste 27 Oeste 0 -- -- 34
2020-06-18 19:00:00 23.7 10 Noroeste 21 Noroeste 0 -- -- 37
2020-06-18 18:00:00 24.7 10 Noroeste 21 Oeste 0 -- -- 34
2020-06-18 17:00:00 24.4 8 Oeste 23 Noroeste 0 -- -- 39
2020-06-18 16:00:00 23.2 10 Noroeste 26 Noroeste 0 -- -- 40
2020-06-18 15:00:00 21.6 5 Nordeste 17 Noroeste 0 -- -- 44
2020-06-18 14:00:00 20.6 5 Nordeste 13 Norte 0 -- -- 48
2020-06-18 13:00:00 19.6 4 Nordeste 19 Noroeste 0 -- -- 54
2020-06-18 12:00:00 18.5 5 Este 15 Norte 0 -- -- 62
2020-06-18 11:00:00 17 6 Noroeste 15 Noroeste 0 -- -- 66
2020-06-18 10:00:00 14 5 Este 13 Nordeste 0 -- -- 77
2020-06-18 09:00:00 12 6 Este 12 Nordeste 0 -- -- 84
2020-06-18 08:00:00 11.4 3 Nordeste 6 Este 0 -- -- 85
2020-06-18 07:00:00 9.4 2 Este 7 Este 0 -- -- 91
2020-06-18 06:00:00 9.7 3 Noroeste 7 Norte 0 -- -- 89
2020-06-18 05:00:00 10.3 3 Noroeste 6 Noroeste 0 -- -- 86
2020-06-18 04:00:00 10.9 3 Norte 13 Nordeste 0 -- -- 84
2020-06-18 03:00:00 11.6 4 Nordeste 11 Norte 0 -- -- 83
2020-06-18 02:00:00 11.6 3 Norte 12 Nordeste 0 -- -- 81
2020-06-18 01:00:00 11.9 0 Calma 12 Noroeste 0 -- -- 79
2020-06-18 00:00:00 13.4 6 Norte 12 Norte 0 -- -- 74
2020-06-17 23:00:00 15.6 3 Norte 13 Nordeste 0 -- -- 68
2020-06-17 22:00:00 17 5 Norte 18 Este 0 -- -- 62
2020-06-17 21:00:00 19.3 4 Oeste 8 Noroeste 0 -- -- 46
2020-06-17 20:00:00 20.5 6 Noroeste 23 Oeste 0 -- -- 38
2020-06-17 19:00:00 22.6 9 Noroeste 18 Oeste 0 -- -- 37
2020-06-17 18:00:00 20.5 7 Sudoeste 19 Oeste 0 -- -- 42
2020-06-17 17:00:00 20.4 4 Norte 15 Sudeste 0 -- -- 42
2020-06-17 16:00:00 20.3 8 Sudeste 20 Sudeste 0 -- -- 47
2020-06-17 15:00:00 19 3 Norte 10 Norte 0 -- -- 50
2020-06-17 14:00:00 18.6 4 Nordeste 10 Sudoeste 0 -- -- 52
2020-06-17 13:00:00 18.6 5 Noroeste 12 Noroeste 0 -- -- 54
2020-06-17 12:00:00 16 6 Sur 12 Sur 0 -- -- 65
2020-06-17 11:00:00 14.9 5 Noroeste 11 Oeste 0 -- -- 68
2020-06-17 10:00:00 13.9 3 Este 10 Sudeste 0 -- -- 77
2020-06-17 09:00:00 11.2 2 Nordeste 5 Noroeste 0 -- -- 86
2020-06-17 08:00:00 10 2 Norte 7 Norte 0 -- -- 92
2020-06-17 07:00:00 8.9 0 Calma 5 Sudoeste 0 -- -- 91
2020-06-17 06:00:00 9 0 Calma 5 Oeste 0 -- -- 91
2020-06-17 05:00:00 9 0 Calma 5 Noroeste 0 -- -- 91
2020-06-17 04:00:00 9.4 0 Calma 11 Sudeste 0 -- -- 85
2020-06-17 03:00:00 11.1 4 Sudeste 11 Sudeste 0 -- -- 85
2020-06-17 02:00:00 10.8 3 Este 12 Este 0 -- -- 83
2020-06-17 01:00:00 11.5 0 Calma 9 Nordeste 0 -- -- 82
2020-06-17 00:00:00 12.3 0 Calma 13 Nordeste 0 -- -- 80
2020-06-16 23:00:00 13.9 5 Este 14 Este 0 -- -- 78
2020-06-16 22:00:00 15.9 6 Nordeste 34 Noroeste 0 -- -- 71
2020-06-16 21:00:00 18.2 21 Noroeste 31 Noroeste 0.2 -- -- 48
2020-06-16 20:00:00 16.7 14 Oeste 34 Sudoeste 0 -- -- 68
2020-06-16 19:00:00 17.2 10 Oeste 50 Oeste 0.2 -- -- 68
2020-06-16 18:00:00 18.3 28 Oeste 46 Oeste 0 -- -- 56
2020-06-16 17:00:00 21.4 16 Oeste 36 Oeste 0 -- -- 47
2020-06-16 16:00:00 18.7 16 Oeste 44 Oeste 0 -- -- 62
2020-06-16 15:00:00 22.6 19 Sudoeste 36 Sudoeste 0 -- -- 45
2020-06-16 14:00:00 21.5 13 Oeste 33 Oeste 0 -- -- 46
2020-06-16 13:00:00 20.6 14 Oeste 31 Oeste 0 -- -- 48
2020-06-16 12:00:00 18.3 13 Oeste 26 Oeste 0 -- -- 54
2020-06-16 11:00:00 17.9 11 Oeste 24 Oeste 0 -- -- 58
2020-06-16 10:00:00 15.5 6 Noroeste 21 Oeste 0 -- -- 68
2020-06-16 09:00:00 12.9 13 Noroeste 21 Oeste 0 -- -- 76
2020-06-16 08:00:00 11.9 8 Noroeste 17 Oeste 0 -- -- 77
2020-06-16 07:00:00 10.4 9 Oeste 21 Oeste 0 -- -- 81
2020-06-16 06:00:00 11.7 10 Oeste 23 Oeste 0 -- -- 77
2020-06-16 05:00:00 12.4 10 Noroeste 20 Noroeste 0 -- -- 74
2020-06-16 04:00:00 13 12 Noroeste 24 Oeste 0 -- -- 73
2020-06-16 03:00:00 13.8 15 Noroeste 25 Oeste 0 -- -- 68
2020-06-16 02:00:00 14.2 13 Oeste 24 Oeste 0 -- -- 68
2020-06-16 01:00:00 14.7 11 Noroeste 22 Noroeste 0 -- -- 67
2020-06-16 00:00:00 15.9 10 Noroeste 25 Oeste 0 -- -- 62
2020-06-15 23:00:00 16.6 17 Oeste 30 Oeste 0 -- -- 60
2020-06-15 22:00:00 17.4 14 Oeste 27 Oeste 0 -- -- 57
2020-06-15 21:00:00 18.7 16 Oeste 26 Oeste 0 -- -- 52
2020-06-15 20:00:00 19.8 12 Oeste 26 Oeste 0 -- -- 47
2020-06-15 19:00:00 21 11 Oeste 40 Oeste 0 -- -- 45
2020-06-15 18:00:00 21.7 13 Oeste 28 Noroeste 0 -- -- 43
2020-06-15 17:00:00 21.9 13 Noroeste 26 Noroeste 0 -- -- 42
2020-06-15 16:00:00 22 11 Oeste 30 Oeste 0 -- -- 41
2020-06-15 15:00:00 21.9 9 Noroeste 23 Sudoeste 0 -- -- 48
2020-06-15 14:00:00 21.8 10 Sudoeste 26 Oeste 0 -- -- 50
2020-06-15 13:00:00 19 10 Oeste 18 Oeste 0 -- -- 51
2020-06-15 12:00:00 17.7 10 Oeste 18 Oeste 0 -- -- 55
2020-06-15 11:00:00 16.1 4 Norte 13 Oeste 0 -- -- 62
2020-06-15 10:00:00 13.8 7 Norte 14 Norte 0 -- -- 70
2020-06-15 09:00:00 11.8 3 Noroeste 7 Oeste 0 -- -- 78
2020-06-15 08:00:00 9.6 0 Calma 8 Oeste 0 -- -- 88
2020-06-15 07:00:00 7.9 0 Calma 7 Sudoeste 0 -- -- 88
2020-06-15 06:00:00 7.9 3 Sudoeste 7 Sudoeste 0 -- -- 85
2020-06-15 05:00:00 8.6 2 Sudoeste 6 Sudoeste 0 -- -- 84
2020-06-15 04:00:00 10.2 4 Sudoeste 6 Sudoeste 0 -- -- 79
2020-06-15 03:00:00 12.1 5 Norte 25 Noroeste 0 -- -- 73
2020-06-15 02:00:00 13 14 Oeste 25 Oeste 0 -- -- 70
2020-06-15 01:00:00 14.6 11 Oeste 24 Oeste 0 -- -- 66
2020-06-15 00:00:00 15.6 13 Oeste 22 Oeste 0 -- -- 63
2020-06-14 23:00:00 16 7 Oeste 12 Oeste 0 -- -- 60
2020-06-14 22:00:00 17.2 8 Noroeste 19 Oeste 0 -- -- 56
2020-06-14 21:00:00 18.6 9 Noroeste 23 Oeste 0 -- -- 50
2020-06-14 20:00:00 19.5 13 Oeste 23 Oeste 0 -- -- 46
2020-06-14 19:00:00 20.1 13 Oeste 29 Oeste 0 -- -- 43
2020-06-14 18:00:00 20.4 13 Oeste 32 Oeste 0 -- -- 44
2020-06-14 17:00:00 20.7 13 Oeste 34 Oeste 0 -- -- 42
2020-06-14 16:00:00 20.9 16 Noroeste 35 Oeste 0 -- -- 41
2020-06-14 15:00:00 20.2 14 Oeste 30 Oeste 0 -- -- 41
2020-06-14 14:00:00 20 16 Oeste 30 Oeste 0 -- -- 43
2020-06-14 13:00:00 18.2 13 Oeste 28 Oeste 0 -- -- 48
2020-06-14 12:00:00 17.2 14 Oeste 23 Oeste 0 -- -- 53
2020-06-14 11:00:00 16.9 10 Noroeste 28 Oeste 0 -- -- 61
2020-06-14 10:00:00 13.8 6 Oeste 14 Sudoeste 0 -- -- 68
2020-06-14 09:00:00 10.5 4 Este 6 Sudeste 0 -- -- 85
2020-06-14 08:00:00 7.5 0 Calma 3 Oeste 0 -- -- 92
2020-06-14 07:00:00 6.3 2 Sudoeste 5 Oeste 0 -- -- 90
2020-06-14 06:00:00 6.7 0 Calma 5 Sudeste 0 -- -- 88
2020-06-14 05:00:00 7.5 3 Norte 13 Noroeste 0 -- -- 86
2020-06-14 04:00:00 8.7 2 Noroeste 13 Oeste 0 -- -- 82
2020-06-14 03:00:00 10.2 9 Oeste 19 Oeste 0 -- -- 78
2020-06-14 02:00:00 11.1 10 Oeste 23 Oeste 0 -- -- 75
2020-06-14 01:00:00 10 8 Oeste 15 Oeste 0 -- -- 78
2020-06-14 00:00:00 11 9 Sudoeste 16 Oeste 0 -- -- 73
2020-06-13 23:00:00 13.8 13 Oeste 24 Oeste 0 -- -- 63
2020-06-13 22:00:00 14.7 8 Oeste 20 Sudoeste 0 -- -- 63
2020-06-13 21:00:00 16.3 11 Oeste 24 Oeste 0 -- -- 55
2020-06-13 20:00:00 17 13 Oeste 33 Oeste 0 -- -- 55
2020-06-13 19:00:00 18.5 15 Oeste 32 Oeste 0 -- -- 51
2020-06-13 18:00:00 19.1 18 Oeste 33 Oeste 0 -- -- 46
2020-06-13 17:00:00 19.8 20 Oeste 41 Oeste 0 -- -- 47
2020-06-13 16:00:00 18.2 15 Oeste 32 Oeste 0 -- -- 50
2020-06-13 15:00:00 17.2 14 Oeste 29 Oeste 0 -- -- 53
2020-06-13 14:00:00 17.5 17 Oeste 35 Noroeste 0 -- -- 52
2020-06-13 13:00:00 17.6 15 Oeste 35 Oeste 0 -- -- 52
2020-06-13 12:00:00 17 18 Oeste 38 Sudoeste 0 -- -- 58
2020-06-13 11:00:00 14.8 15 Oeste 41 Noroeste 0 -- -- 68
2020-06-13 10:00:00 13.3 22 Oeste 36 Oeste 0 -- -- 75
2020-06-13 09:00:00 10.3 21 Oeste 36 Sudoeste 0 -- -- 84
2020-06-13 08:00:00 9.3 19 Oeste 40 Oeste 0 -- -- 88
2020-06-13 07:00:00 8.4 14 Oeste 31 Oeste 0 -- -- 92
2020-06-13 06:00:00 8.4 18 Oeste 36 Oeste 0 -- -- 90
2020-06-13 05:00:00 8.9 12 Oeste 32 Sudoeste 0 -- -- 91
2020-06-13 04:00:00 9.3 15 Oeste 30 Oeste 0 -- -- 90
2020-06-13 03:00:00 9.6 14 Oeste 35 Oeste 0 -- -- 90
2020-06-13 02:00:00 9.9 15 Oeste 31 Oeste 0 -- -- 89
2020-06-13 01:00:00 10.4 15 Oeste 30 Sudoeste 0.2 -- -- 88
2020-06-13 00:00:00 10.3 14 Sudoeste 31 Sudoeste 0 -- -- 88
2020-06-12 23:00:00 10.9 17 Oeste 32 Oeste 0 -- -- 84
2020-06-12 22:00:00 11.7 13 Oeste 30 Oeste 0 -- -- 84
2020-06-12 21:00:00 12.4 18 Sudoeste 37 Oeste 0 -- -- 78
2020-06-12 20:00:00 13.2 19 Sudoeste 38 Sudoeste 0 -- -- 76
2020-06-12 19:00:00 12.5 21 Oeste 49 Oeste 0 -- -- 81
2020-06-12 18:00:00 12.4 22 Oeste 43 Oeste 0.2 -- -- 85
2020-06-12 17:00:00 12.8 19 Oeste 53 Oeste 1.6 -- -- 90
2020-06-12 16:00:00 17.5 22 Oeste 48 Oeste 0 -- -- 52
2020-06-12 15:00:00 17.2 24 Oeste 48 Oeste 0 -- -- 55
2020-06-12 14:00:00 15.9 23 Oeste 42 Sudoeste 0 -- -- 54
2020-06-12 13:00:00 16 21 Oeste 42 Oeste 0 -- -- 53
2020-06-12 12:00:00 15.6 22 Oeste 45 Oeste 0 -- -- 54
2020-06-12 11:00:00 14.7 25 Oeste 43 Oeste 0 -- -- 60
2020-06-12 10:00:00 11.7 21 Oeste 43 Oeste 0 -- -- 74
2020-06-12 09:00:00 10.8 24 Oeste 50 Oeste 0 -- -- 78
2020-06-12 08:00:00 10.1 25 Oeste 48 Oeste 0 -- -- 79
2020-06-12 07:00:00 9.3 22 Oeste 38 Oeste 0 -- -- 80
2020-06-12 06:00:00 9.1 20 Sudoeste 42 Sudoeste 0 -- -- 77
2020-06-12 05:00:00 9.2 19 Sudoeste 41 Sudoeste 0 -- -- 72
2020-06-12 04:00:00 9.5 21 Sudoeste 41 Oeste -- -- -- 70
2020-06-12 03:00:00 9.2 18 Sudoeste 42 Oeste 0 -- -- 71
2020-06-12 02:00:00 8.5 22 Oeste 41 Oeste 0 -- -- 72
2020-06-12 01:00:00 8.7 11 Oeste 27 Oeste 0 -- -- 74
2020-06-12 00:00:00 9.2 10 Oeste 28 Noroeste 0 -- -- 70